Saint Boswells, United Kingdom
Current Conditions -  °F | °C
As of 3:50 PM on Sunday 25 Jan 2015 (Local Time) from EGOM Reporting Station
Light Rain Light Rain  
Wind Chill: 35°   Ceiling: 100
Heat Index: 45°   Visibility: 0.12mi
Dew Point: 45°   Wind: 29mph
Humidity: 100%   Direction: 240°WSW
Pressure: 30.06"   Gusts: NA
Location:  55.57°N, 2.64°W
Report Text: EGOM 251550Z AUTO 24025KT 0200 -RA OVC001/// 07/07 Q1018
Loading
Personal Weather Stations






























Interactive Weather Map New forecast layout! Learn more

10-Day Weather Forecast

Advertisements
Track Severe Weather on mobile